Pink, Oklahoma
Current Conditions -  °F | °C
As of 8:35 PM on Sunday 21 Dec 2014 (Local Time) from KSNL Reporting Station
Haze Haze  
Wind Chill: 44°   Ceiling: 700
Heat Index: 48°   Visibility: 5mi
Dew Point: 48°   Wind: 10mph
Humidity: 100%   Direction: 150°SSE
Pressure: 29.75"   Gusts: NA
Location:  35.2189°N, 97.0168°W
Report Text: KSNL 220235Z AUTO 15009KT 5SM BR OVC007 09/09 A2975 RMK AO2
Loading
Personal Weather Stations






























Interactive Weather Map New forecast layout! Learn more

10-Day Weather Forecast

Advertisements
Track Severe Weather on mobile